sensor_id;sensor_type;location;lat;lon;timestamp;temperature;humidity
67777;DHT22;54576;52.020;5.536;2023-03-01T00:01:37;-1.70;70.90
67777;DHT22;54576;52.020;5.536;2023-03-01T00:04:03;-1.80;71.00
67777;DHT22;54576;52.020;5.536;2023-03-01T00:06:28;-1.80;71.20
67777;DHT22;54576;52.020;5.536;2023-03-01T00:08:54;-1.90;71.30
67777;DHT22;54576;52.020;5.536;2023-03-01T00:11:27;-1.90;71.30
67777;DHT22;54576;52.020;5.536;2023-03-01T00:13:56;-1.80;71.50
67777;DHT22;54576;52.020;5.536;2023-03-01T00:16:27;-1.90;71.40
67777;DHT22;54576;52.020;5.536;2023-03-01T00:18:54;-1.90;71.50
67777;DHT22;54576;52.020;5.536;2023-03-01T00:21:21;-2.00;71.20
67777;DHT22;54576;52.020;5.536;2023-03-01T00:23:48;-2.00;71.10
67777;DHT22;54576;52.020;5.536;2023-03-01T00:26:17;-2.00;70.90
67777;DHT22;54576;52.020;5.536;2023-03-01T00:28:44;-2.00;71.50
67777;DHT22;54576;52.020;5.536;2023-03-01T00:31:13;-2.00;71.60
67777;DHT22;54576;52.020;5.536;2023-03-01T00:33:39;-2.00;71.60
67777;DHT22;54576;52.020;5.536;2023-03-01T00:36:05;-2.10;71.80
67777;DHT22;54576;52.020;5.536;2023-03-01T00:38:35;-2.10;71.80
67777;DHT22;54576;52.020;5.536;2023-03-01T00:41:12;-2.10;71.30
67777;DHT22;54576;52.020;5.536;2023-03-01T00:43:38;-2.20;71.60
67777;DHT22;54576;52.020;5.536;2023-03-01T00:46:09;-2.20;71.90
67777;DHT22;54576;52.020;5.536;2023-03-01T00:48:37;-2.20;72.30
67777;DHT22;54576;52.020;5.536;2023-03-01T00:51:12;-2.20;72.20
67777;DHT22;54576;52.020;5.536;2023-03-01T00:53:38;-2.30;72.20
67777;DHT22;54576;52.020;5.536;2023-03-01T00:56:05;-2.30;71.40
67777;DHT22;54576;52.020;5.536;2023-03-01T01:01:08;-2.30;71.80
67777;DHT22;54576;52.020;5.536;2023-03-01T01:03:44;-2.30;71.70
67777;DHT22;54576;52.020;5.536;2023-03-01T01:06:18;-2.30;72.30
67777;DHT22;54576;52.020;5.536;2023-03-01T01:08:47;-2.40;71.90
67777;DHT22;54576;52.020;5.536;2023-03-01T01:11:13;-2.40;71.90
67777;DHT22;54576;52.020;5.536;2023-03-01T01:13:40;-2.40;72.30
67777;DHT22;54576;52.020;5.536;2023-03-01T01:16:06;-2.40;73.50
67777;DHT22;54576;52.020;5.536;2023-03-01T01:18:31;-2.50;72.30
67777;DHT22;54576;52.020;5.536;2023-03-01T01:20:57;-2.50;72.00
67777;DHT22;54576;52.020;5.536;2023-03-01T01:23:23;-2.50;72.40
67777;DHT22;54576;52.020;5.536;2023-03-01T01:25:48;-2.50;72.60
67777;DHT22;54576;52.020;5.536;2023-03-01T01:28:14;-2.60;72.80
67777;DHT22;54576;52.020;5.536;2023-03-01T01:30:39;-2.60;72.70
67777;DHT22;54576;52.020;5.536;2023-03-01T01:33:05;-2.60;71.70
67777;DHT22;54576;52.020;5.536;2023-03-01T01:35:30;-2.60;72.30
67777;DHT22;54576;52.020;5.536;2023-03-01T01:37:56;-2.70;72.20
67777;DHT22;54576;52.020;5.536;2023-03-01T01:40:22;-2.70;72.20
67777;DHT22;54576;52.020;5.536;2023-03-01T01:42:47;-2.70;71.60
67777;DHT22;54576;52.020;5.536;2023-03-01T01:45:32;-2.70;72.10
67777;DHT22;54576;52.020;5.536;2023-03-01T01:48:03;-2.70;72.10
67777;DHT22;54576;52.020;5.536;2023-03-01T01:50:29;-2.70;71.90
67777;DHT22;54576;52.020;5.536;2023-03-01T01:53:05;-2.70;72.20
67777;DHT22;54576;52.020;5.536;2023-03-01T01:55:32;-2.70;72.60
67777;DHT22;54576;52.020;5.536;2023-03-01T01:58:01;-2.70;73.10
67777;DHT22;54576;52.020;5.536;2023-03-01T02:00:29;-2.70;72.80
67777;DHT22;54576;52.020;5.536;2023-03-01T02:03:00;-2.80;72.70
67777;DHT22;54576;52.020;5.536;2023-03-01T02:08:03;-2.80;72.70
67777;DHT22;54576;52.020;5.536;2023-03-01T02:10:29;-2.90;73.10
67777;DHT22;54576;52.020;5.536;2023-03-01T02:12:58;-2.90;73.10
67777;DHT22;54576;52.020;5.536;2023-03-01T02:15:25;-2.90;73.00
67777;DHT22;54576;52.020;5.536;2023-03-01T02:17:52;-2.90;72.90
67777;DHT22;54576;52.020;5.536;2023-03-01T02:22:53;-2.90;73.00
67777;DHT22;54576;52.020;5.536;2023-03-01T02:30:45;-2.90;72.50
67777;DHT22;54576;52.020;5.536;2023-03-01T02:33:33;-2.90;72.50
67777;DHT22;54576;52.020;5.536;2023-03-01T02:36:03;-2.90;73.20
67777;DHT22;54576;52.020;5.536;2023-03-01T02:38:31;-2.90;73.00
67777;DHT22;54576;52.020;5.536;2023-03-01T02:40:57;-3.00;73.20
67777;DHT22;54576;52.020;5.536;2023-03-01T02:43:30;-3.00;72.50
67777;DHT22;54576;52.020;5.536;2023-03-01T02:45:59;-3.00;73.10
67777;DHT22;54576;52.020;5.536;2023-03-01T02:48:27;-3.10;72.60
67777;DHT22;54576;52.020;5.536;2023-03-01T02:51:04;-3.10;73.00
67777;DHT22;54576;52.020;5.536;2023-03-01T02:53:35;-3.10;72.90
67777;DHT22;54576;52.020;5.536;2023-03-01T02:56:04;-3.20;72.90
67777;DHT22;54576;52.020;5.536;2023-03-01T02:58:29;-3.20;73.40
67777;DHT22;54576;52.020;5.536;2023-03-01T03:00:56;-3.20;73.30
67777;DHT22;54576;52.020;5.536;2023-03-01T03:03:22;-3.30;73.10
67777;DHT22;54576;52.020;5.536;2023-03-01T03:05:48;-3.30;73.70
67777;DHT22;54576;52.020;5.536;2023-03-01T03:08:14;-3.30;73.20
67777;DHT22;54576;52.020;5.536;2023-03-01T03:10:41;-3.30;73.50
67777;DHT22;54576;52.020;5.536;2023-03-01T03:13:13;-3.30;72.70
67777;DHT22;54576;52.020;5.536;2023-03-01T03:15:39;-3.30;72.40
67777;DHT22;54576;52.020;5.536;2023-03-01T03:18:08;-3.30;72.40
67777;DHT22;54576;52.020;5.536;2023-03-01T03:20:34;-3.30;73.30
67777;DHT22;54576;52.020;5.536;2023-03-01T03:23:02;-3.30;73.40
67777;DHT22;54576;52.020;5.536;2023-03-01T03:25:28;-3.30;73.40
67777;DHT22;54576;52.020;5.536;2023-03-01T03:27:55;-3.40;73.50
67777;DHT22;54576;52.020;5.536;2023-03-01T03:30:26;-3.40;74.50
67777;DHT22;54576;52.020;5.536;2023-03-01T03:32:52;-3.50;74.00
67777;DHT22;54576;52.020;5.536;2023-03-01T03:35:27;-3.50;73.90
67777;DHT22;54576;52.020;5.536;2023-03-01T03:37:57;-3.50;73.90
67777;DHT22;54576;52.020;5.536;2023-03-01T03:43:04;-3.50;74.10
67777;DHT22;54576;52.020;5.536;2023-03-01T03:45:30;-3.50;74.10
67777;DHT22;54576;52.020;5.536;2023-03-01T03:48:01;-3.50;73.10
67777;DHT22;54576;52.020;5.536;2023-03-01T03:50:27;-3.50;72.70
67777;DHT22;54576;52.020;5.536;2023-03-01T03:52:52;-3.50;73.70
67777;DHT22;54576;52.020;5.536;2023-03-01T03:55:18;-3.40;74.00
67777;DHT22;54576;52.020;5.536;2023-03-01T03:57:46;-3.40;74.00
67777;DHT22;54576;52.020;5.536;2023-03-01T04:00:17;-3.40;74.00
67777;DHT22;54576;52.020;5.536;2023-03-01T04:02:46;-3.40;74.10
67777;DHT22;54576;52.020;5.536;2023-03-01T04:05:13;-3.40;73.90
67777;DHT22;54576;52.020;5.536;2023-03-01T04:07:42;-3.50;73.80
67777;DHT22;54576;52.020;5.536;2023-03-01T04:10:14;-3.50;74.10
67777;DHT22;54576;52.020;5.536;2023-03-01T04:12:39;-3.50;74.00
67777;DHT22;54576;52.020;5.536;2023-03-01T04:15:07;-3.50;74.20
67777;DHT22;54576;52.020;5.536;2023-03-01T04:20:05;-3.50;73.90
67777;DHT22;54576;52.020;5.536;2023-03-01T04:22:32;-3.50;72.90
67777;DHT22;54576;52.020;5.536;2023-03-01T04:24:58;-3.50;72.90
67777;DHT22;54576;52.020;5.536;2023-03-01T04:27:27;-3.50;73.60
67777;DHT22;54576;52.020;5.536;2023-03-01T04:29:52;-3.50;73.10
67777;DHT22;54576;52.020;5.536;2023-03-01T04:32:18;-3.50;73.80
67777;DHT22;54576;52.020;5.536;2023-03-01T04:34:44;-3.40;74.00
67777;DHT22;54576;52.020;5.536;2023-03-01T04:37:09;-3.50;73.90
67777;DHT22;54576;52.020;5.536;2023-03-01T04:39:35;-3.50;74.00
67777;DHT22;54576;52.020;5.536;2023-03-01T04:42:11;-3.50;74.40
67777;DHT22;54576;52.020;5.536;2023-03-01T04:44:36;-3.60;74.00
67777;DHT22;54576;52.020;5.536;2023-03-01T04:47:02;-3.60;74.00
67777;DHT22;54576;52.020;5.536;2023-03-01T04:49:27;-3.60;73.80
67777;DHT22;54576;52.020;5.536;2023-03-01T04:51:53;-3.60;73.70
67777;DHT22;54576;52.020;5.536;2023-03-01T04:54:19;-3.70;74.00
67777;DHT22;54576;52.020;5.536;2023-03-01T04:56:44;-3.70;74.20
67777;DHT22;54576;52.020;5.536;2023-03-01T04:59:11;-3.80;73.90
67777;DHT22;54576;52.020;5.536;2023-03-01T05:01:38;-3.80;74.30
67777;DHT22;54576;52.020;5.536;2023-03-01T05:04:04;-3.80;74.50
67777;DHT22;54576;52.020;5.536;2023-03-01T05:06:31;-3.90;74.40
67777;DHT22;54576;52.020;5.536;2023-03-01T05:08:56;-3.90;74.40
67777;DHT22;54576;52.020;5.536;2023-03-01T05:11:23;-3.90;73.80
67777;DHT22;54576;52.020;5.536;2023-03-01T05:13:50;-3.90;73.60
67777;DHT22;54576;52.020;5.536;2023-03-01T05:16:20;-3.90;73.50
67777;DHT22;54576;52.020;5.536;2023-03-01T05:18:45;-3.90;73.20
67777;DHT22;54576;52.020;5.536;2023-03-01T05:21:13;-3.90;74.00
67777;DHT22;54576;52.020;5.536;2023-03-01T05:23:41;-3.90;74.40
67777;DHT22;54576;52.020;5.536;2023-03-01T05:26:07;-3.90;73.90
67777;DHT22;54576;52.020;5.536;2023-03-01T05:28:33;-3.80;73.20
67777;DHT22;54576;52.020;5.536;2023-03-01T05:30:59;-3.80;74.00
67777;DHT22;54576;52.020;5.536;2023-03-01T05:33:26;-3.80;73.90
67777;DHT22;54576;52.020;5.536;2023-03-01T05:35:51;-3.80;74.00
67777;DHT22;54576;52.020;5.536;2023-03-01T05:38:20;-3.90;74.40
67777;DHT22;54576;52.020;5.536;2023-03-01T05:40:47;-3.90;74.30
67777;DHT22;54576;52.020;5.536;2023-03-01T05:43:15;-3.90;73.80
67777;DHT22;54576;52.020;5.536;2023-03-01T05:45:42;-3.90;73.80
67777;DHT22;54576;52.020;5.536;2023-03-01T05:48:10;-3.90;74.40
67777;DHT22;54576;52.020;5.536;2023-03-01T05:50:39;-3.90;74.20
67777;DHT22;54576;52.020;5.536;2023-03-01T05:53:07;-3.90;74.60
67777;DHT22;54576;52.020;5.536;2023-03-01T05:55:35;-3.90;74.70
67777;DHT22;54576;52.020;5.536;2023-03-01T05:58:02;-3.90;74.20
67777;DHT22;54576;52.020;5.536;2023-03-01T06:00:29;-3.90;74.50
67777;DHT22;54576;52.020;5.536;2023-03-01T06:02:56;-3.90;74.60
67777;DHT22;54576;52.020;5.536;2023-03-01T06:05:22;-3.90;74.50
67777;DHT22;54576;52.020;5.536;2023-03-01T06:07:48;-4.00;74.60
67777;DHT22;54576;52.020;5.536;2023-03-01T06:10:19;-4.00;74.60
67777;DHT22;54576;52.020;5.536;2023-03-01T06:12:45;-4.00;74.50
67777;DHT22;54576;52.020;5.536;2023-03-01T06:15:13;-4.00;74.40
67777;DHT22;54576;52.020;5.536;2023-03-01T06:17:41;-4.00;74.20
67777;DHT22;54576;52.020;5.536;2023-03-01T06:22:40;-4.00;74.40
67777;DHT22;54576;52.020;5.536;2023-03-01T06:25:07;-4.00;74.30
67777;DHT22;54576;52.020;5.536;2023-03-01T06:27:33;-4.00;74.40
67777;DHT22;54576;52.020;5.536;2023-03-01T06:29:59;-4.00;74.80
67777;DHT22;54576;52.020;5.536;2023-03-01T06:32:25;-4.00;74.60
67777;DHT22;54576;52.020;5.536;2023-03-01T06:34:50;-4.10;74.90
67777;DHT22;54576;52.020;5.536;2023-03-01T06:37:16;-4.00;75.30
67777;DHT22;54576;52.020;5.536;2023-03-01T06:39:41;-4.10;75.20
67777;DHT22;54576;52.020;5.536;2023-03-01T06:42:08;-3.90;75.50
67777;DHT22;54576;52.020;5.536;2023-03-01T06:44:35;-3.80;75.00
67777;DHT22;54576;52.020;5.536;2023-03-01T06:47:01;-3.70;74.50
67777;DHT22;54576;52.020;5.536;2023-03-01T06:49:27;-3.50;74.20
67777;DHT22;54576;52.020;5.536;2023-03-01T06:51:52;-3.30;74.00
67777;DHT22;54576;52.020;5.536;2023-03-01T06:54:18;-3.30;74.20
67777;DHT22;54576;52.020;5.536;2023-03-01T06:56:46;-3.40;74.20
67777;DHT22;54576;52.020;5.536;2023-03-01T06:59:12;-3.40;74.60
67777;DHT22;54576;52.020;5.536;2023-03-01T07:01:38;-3.40;73.90
67777;DHT22;54576;52.020;5.536;2023-03-01T07:04:04;-3.40;74.30
67777;DHT22;54576;52.020;5.536;2023-03-01T07:06:29;-3.40;74.50
67777;DHT22;54576;52.020;5.536;2023-03-01T07:08:55;-3.40;74.90
67777;DHT22;54576;52.020;5.536;2023-03-01T07:11:20;-3.50;74.60
67777;DHT22;54576;52.020;5.536;2023-03-01T07:13:46;-3.40;74.90
67777;DHT22;54576;52.020;5.536;2023-03-01T07:16:12;-3.40;74.90
67777;DHT22;54576;52.020;5.536;2023-03-01T07:18:37;-3.40;75.00
67777;DHT22;54576;52.020;5.536;2023-03-01T07:21:11;-3.30;75.20
67777;DHT22;54576;52.020;5.536;2023-03-01T07:23:37;-3.20;74.60
67777;DHT22;54576;52.020;5.536;2023-03-01T07:26:03;-3.10;74.10
67777;DHT22;54576;52.020;5.536;2023-03-01T07:28:29;-3.10;74.30
67777;DHT22;54576;52.020;5.536;2023-03-01T07:31:00;-2.90;75.00
67777;DHT22;54576;52.020;5.536;2023-03-01T07:33:25;-2.90;74.70
67777;DHT22;54576;52.020;5.536;2023-03-01T07:35:59;-2.80;73.90
67777;DHT22;54576;52.020;5.536;2023-03-01T07:38:25;-2.60;73.60
67777;DHT22;54576;52.020;5.536;2023-03-01T07:40:50;-2.50;73.40
67777;DHT22;54576;52.020;5.536;2023-03-01T07:43:16;-2.40;73.10
67777;DHT22;54576;52.020;5.536;2023-03-01T07:45:41;-2.30;73.30
67777;DHT22;54576;52.020;5.536;2023-03-01T07:48:07;-2.20;73.30
67777;DHT22;54576;52.020;5.536;2023-03-01T07:50:33;-2.10;73.30
67777;DHT22;54576;52.020;5.536;2023-03-01T07:52:58;-2.00;74.80
67777;DHT22;54576;52.020;5.536;2023-03-01T07:55:24;-1.90;74.00
67777;DHT22;54576;52.020;5.536;2023-03-01T07:57:49;-1.80;73.30
67777;DHT22;54576;52.020;5.536;2023-03-01T08:00:15;-1.70;73.10
67777;DHT22;54576;52.020;5.536;2023-03-01T08:02:41;-1.60;73.10
67777;DHT22;54576;52.020;5.536;2023-03-01T08:05:08;-1.50;73.20
67777;DHT22;54576;52.020;5.536;2023-03-01T08:07:34;-1.40;73.30
67777;DHT22;54576;52.020;5.536;2023-03-01T08:09:59;-1.30;73.30
67777;DHT22;54576;52.020;5.536;2023-03-01T08:12:25;-1.20;72.70
67777;DHT22;54576;52.020;5.536;2023-03-01T08:14:52;-1.10;74.00
67777;DHT22;54576;52.020;5.536;2023-03-01T08:17:18;-1.00;72.80
67777;DHT22;54576;52.020;5.536;2023-03-01T08:19:43;-0.90;73.40
67777;DHT22;54576;52.020;5.536;2023-03-01T08:22:09;-0.70;72.50
67777;DHT22;54576;52.020;5.536;2023-03-01T08:24:35;-0.60;72.30
67777;DHT22;54576;52.020;5.536;2023-03-01T08:27:01;-0.50;71.90
67777;DHT22;54576;52.020;5.536;2023-03-01T08:29:28;-0.40;71.90
67777;DHT22;54576;52.020;5.536;2023-03-01T08:31:55;-0.30;71.80
67777;DHT22;54576;52.020;5.536;2023-03-01T08:34:20;-0.20;71.80
67777;DHT22;54576;52.020;5.536;2023-03-01T08:36:47;-0.10;71.60
67777;DHT22;54576;52.020;5.536;2023-03-01T08:39:15;0.00;71.60
67777;DHT22;54576;52.020;5.536;2023-03-01T08:41:41;0.10;71.30
67777;DHT22;54576;52.020;5.536;2023-03-01T08:44:08;0.20;71.20
67777;DHT22;54576;52.020;5.536;2023-03-01T08:46:39;0.30;70.60
67777;DHT22;54576;52.020;5.536;2023-03-01T08:49:12;0.40;70.80
67777;DHT22;54576;52.020;5.536;2023-03-01T08:51:38;0.50;71.30
67777;DHT22;54576;52.020;5.536;2023-03-01T08:54:06;0.60;72.10
67777;DHT22;54576;52.020;5.536;2023-03-01T08:56:32;0.70;71.50
67777;DHT22;54576;52.020;5.536;2023-03-01T08:58:58;0.80;71.20
67777;DHT22;54576;52.020;5.536;2023-03-01T09:01:24;1.00;71.70
67777;DHT22;54576;52.020;5.536;2023-03-01T09:03:50;1.00;72.90
67777;DHT22;54576;52.020;5.536;2023-03-01T09:06:16;1.10;72.50
67777;DHT22;54576;52.020;5.536;2023-03-01T09:08:47;1.30;71.30
67777;DHT22;54576;52.020;5.536;2023-03-01T09:11:16;1.40;70.70
67777;DHT22;54576;52.020;5.536;2023-03-01T09:13:42;1.60;70.50
67777;DHT22;54576;52.020;5.536;2023-03-01T09:16:08;1.80;69.70
67777;DHT22;54576;52.020;5.536;2023-03-01T09:18:34;1.90;70.90
67777;DHT22;54576;52.020;5.536;2023-03-01T09:21:09;2.20;68.60
67777;DHT22;54576;52.020;5.536;2023-03-01T09:23:37;2.30;69.30
67777;DHT22;54576;52.020;5.536;2023-03-01T09:26:08;2.50;68.20
67777;DHT22;54576;52.020;5.536;2023-03-01T09:28:35;2.60;68.10
67777;DHT22;54576;52.020;5.536;2023-03-01T09:31:01;2.70;69.00
67777;DHT22;54576;52.020;5.536;2023-03-01T09:33:28;2.90;68.10
67777;DHT22;54576;52.020;5.536;2023-03-01T09:35:58;3.10;67.60
67777;DHT22;54576;52.020;5.536;2023-03-01T09:38:24;3.20;67.40
67777;DHT22;54576;52.020;5.536;2023-03-01T09:40:49;3.30;67.00
67777;DHT22;54576;52.020;5.536;2023-03-01T09:46:20;3.50;66.60
67777;DHT22;54576;52.020;5.536;2023-03-01T09:49:02;3.60;66.30
67777;DHT22;54576;52.020;5.536;2023-03-01T09:51:31;3.60;65.70
67777;DHT22;54576;52.020;5.536;2023-03-01T09:53:57;3.70;66.00
67777;DHT22;54576;52.020;5.536;2023-03-01T10:04:51;3.90;66.00
67777;DHT22;54576;52.020;5.536;2023-03-01T10:07:44;3.90;66.00
67777;DHT22;54576;52.020;5.536;2023-03-01T10:10:44;4.00;66.40
67777;DHT22;54576;52.020;5.536;2023-03-01T10:15:45;4.10;66.30
67777;DHT22;54576;52.020;5.536;2023-03-01T10:18:16;4.20;66.00
67777;DHT22;54576;52.020;5.536;2023-03-01T10:20:54;4.20;66.00
67777;DHT22;54576;52.020;5.536;2023-03-01T10:23:25;4.30;65.90
67777;DHT22;54576;52.020;5.536;2023-03-01T10:31:24;4.60;63.70
67777;DHT22;54576;52.020;5.536;2023-03-01T10:33:55;4.60;64.60
67777;DHT22;54576;52.020;5.536;2023-03-01T10:36:23;4.70;65.00
67777;DHT22;54576;52.020;5.536;2023-03-01T10:38:54;4.70;62.20
67777;DHT22;54576;52.020;5.536;2023-03-01T10:41:21;4.70;64.90
67777;DHT22;54576;52.020;5.536;2023-03-01T10:43:53;4.80;64.20
67777;DHT22;54576;52.020;5.536;2023-03-01T10:51:35;5.00;63.10
67777;DHT22;54576;52.020;5.536;2023-03-01T10:54:02;5.10;62.90
67777;DHT22;54576;52.020;5.536;2023-03-01T10:56:45;5.10;61.90
67777;DHT22;54576;52.020;5.536;2023-03-01T10:59:25;5.10;63.60
67777;DHT22;54576;52.020;5.536;2023-03-01T11:04:34;5.10;56.90
67777;DHT22;54576;52.020;5.536;2023-03-01T11:07:01;5.20;61.70
67777;DHT22;54576;52.020;5.536;2023-03-01T11:09:31;5.20;62.70
67777;DHT22;54576;52.020;5.536;2023-03-01T11:12:04;5.30;62.60
67777;DHT22;54576;52.020;5.536;2023-03-01T11:14:37;5.40;62.20
67777;DHT22;54576;52.020;5.536;2023-03-01T11:17:08;5.50;60.20
67777;DHT22;54576;52.020;5.536;2023-03-01T11:19:40;5.50;61.70
67777;DHT22;54576;52.020;5.536;2023-03-01T11:24:38;5.40;63.40
67777;DHT22;54576;52.020;5.536;2023-03-01T11:27:26;5.50;60.80
67777;DHT22;54576;52.020;5.536;2023-03-01T11:30:06;5.50;62.50
67777;DHT22;54576;52.020;5.536;2023-03-01T11:32:39;5.50;61.40
67777;DHT22;54576;52.020;5.536;2023-03-01T11:35:27;5.60;62.90
67777;DHT22;54576;52.020;5.536;2023-03-01T11:54:50;6.00;61.10
67777;DHT22;54576;52.020;5.536;2023-03-01T12:00:28;6.00;61.50
67777;DHT22;54576;52.020;5.536;2023-03-01T12:08:19;6.30;60.80
67777;DHT22;54576;52.020;5.536;2023-03-01T12:11:01;6.40;62.10
67777;DHT22;54576;52.020;5.536;2023-03-01T12:27:37;6.80;73.80
67777;DHT22;54576;52.020;5.536;2023-03-01T12:30:28;6.70;60.80
67777;DHT22;54576;52.020;5.536;2023-03-01T12:35:52;6.60;59.00
67777;DHT22;54576;52.020;5.536;2023-03-01T12:38:32;6.60;59.40
67777;DHT22;54576;52.020;5.536;2023-03-01T12:41:11;6.70;60.00
67777;DHT22;54576;52.020;5.536;2023-03-01T12:43:57;6.70;59.80
67777;DHT22;54576;52.020;5.536;2023-03-01T12:49:31;6.80;86.70
67777;DHT22;54576;52.020;5.536;2023-03-01T12:54:45;6.70;59.10
67777;DHT22;54576;52.020;5.536;2023-03-01T13:00:22;6.90;60.90
67777;DHT22;54576;52.020;5.536;2023-03-01T13:02:59;6.90;59.30
67777;DHT22;54576;52.020;5.536;2023-03-01T13:06:08;6.90;59.50
67777;DHT22;54576;52.020;5.536;2023-03-01T13:08:54;7.00;59.90
67777;DHT22;54576;52.020;5.536;2023-03-01T13:13:50;7.00;59.30
67777;DHT22;54576;52.020;5.536;2023-03-01T13:19:15;7.00;54.40
67777;DHT22;54576;52.020;5.536;2023-03-01T13:24:24;7.00;58.20
67777;DHT22;54576;52.020;5.536;2023-03-01T13:35:00;7.20;56.90
67777;DHT22;54576;52.020;5.536;2023-03-01T13:37:31;7.20;58.40
67777;DHT22;54576;52.020;5.536;2023-03-01T13:39:59;7.10;57.00
67777;DHT22;54576;52.020;5.536;2023-03-01T13:42:40;7.10;55.40
67777;DHT22;54576;52.020;5.536;2023-03-01T13:48:08;7.30;58.40
67777;DHT22;54576;52.020;5.536;2023-03-01T13:50:43;7.40;58.40
67777;DHT22;54576;52.020;5.536;2023-03-01T13:55:45;7.40;56.90
67777;DHT22;54576;52.020;5.536;2023-03-01T13:58:32;7.40;56.50
67777;DHT22;54576;52.020;5.536;2023-03-01T14:00:59;7.40;52.50
67777;DHT22;54576;52.020;5.536;2023-03-01T14:03:25;7.40;55.30
67777;DHT22;54576;52.020;5.536;2023-03-01T14:06:13;7.40;56.90
67777;DHT22;54576;52.020;5.536;2023-03-01T14:11:28;7.50;56.40
67777;DHT22;54576;52.020;5.536;2023-03-01T14:14:23;7.50;56.40
67777;DHT22;54576;52.020;5.536;2023-03-01T14:17:12;7.50;56.40
67777;DHT22;54576;52.020;5.536;2023-03-01T14:19:47;7.50;56.60
67777;DHT22;54576;52.020;5.536;2023-03-01T14:24:47;7.40;74.20
67777;DHT22;54576;52.020;5.536;2023-03-01T14:27:14;7.50;57.10
67777;DHT22;54576;52.020;5.536;2023-03-01T14:34:35;7.50;56.90
67777;DHT22;54576;52.020;5.536;2023-03-01T14:39:45;7.60;56.80
67777;DHT22;54576;52.020;5.536;2023-03-01T14:42:12;7.50;56.40
67777;DHT22;54576;52.020;5.536;2023-03-01T14:44:44;7.50;55.70
67777;DHT22;54576;52.020;5.536;2023-03-01T14:47:17;7.50;55.80
67777;DHT22;54576;52.020;5.536;2023-03-01T14:49:45;7.50;58.40
67777;DHT22;54576;52.020;5.536;2023-03-01T14:52:21;7.60;57.20
67777;DHT22;54576;52.020;5.536;2023-03-01T14:54:50;7.60;56.40
67777;DHT22;54576;52.020;5.536;2023-03-01T14:57:22;7.70;57.70
67777;DHT22;54576;52.020;5.536;2023-03-01T14:59:53;7.70;56.10
67777;DHT22;54576;52.020;5.536;2023-03-01T15:02:21;7.70;56.80
67777;DHT22;54576;52.020;5.536;2023-03-01T15:04:51;7.70;55.90
67777;DHT22;54576;52.020;5.536;2023-03-01T15:07:17;7.70;57.70
67777;DHT22;54576;52.020;5.536;2023-03-01T15:09:44;7.60;52.00
67777;DHT22;54576;52.020;5.536;2023-03-01T15:14:57;7.60;55.80
67777;DHT22;54576;52.020;5.536;2023-03-01T15:17:34;7.60;55.90
67777;DHT22;54576;52.020;5.536;2023-03-01T15:20:13;7.60;57.40
67777;DHT22;54576;52.020;5.536;2023-03-01T15:25:22;7.70;54.70
67777;DHT22;54576;52.020;5.536;2023-03-01T15:27:49;7.70;57.20
67777;DHT22;54576;52.020;5.536;2023-03-01T15:30:20;7.70;57.20
67777;DHT22;54576;52.020;5.536;2023-03-01T15:32:46;7.70;58.90
67777;DHT22;54576;52.020;5.536;2023-03-01T15:35:48;7.60;57.20
67777;DHT22;54576;52.020;5.536;2023-03-01T15:40:51;7.50;55.80
67777;DHT22;54576;52.020;5.536;2023-03-01T15:43:39;7.60;86.50
67777;DHT22;54576;52.020;5.536;2023-03-01T15:46:12;7.60;56.90
67777;DHT22;54576;52.020;5.536;2023-03-01T15:48:45;7.50;57.40
67777;DHT22;54576;52.020;5.536;2023-03-01T15:51:13;7.50;56.30
67777;DHT22;54576;52.020;5.536;2023-03-01T15:56:06;7.50;56.30
67777;DHT22;54576;52.020;5.536;2023-03-01T15:58:33;7.50;57.70
67777;DHT22;54576;52.020;5.536;2023-03-01T16:00:59;7.50;56.80
67777;DHT22;54576;52.020;5.536;2023-03-01T16:03:24;7.50;55.00
67777;DHT22;54576;52.020;5.536;2023-03-01T16:05:50;7.40;56.70
67777;DHT22;54576;52.020;5.536;2023-03-01T16:08:17;7.40;55.70
67777;DHT22;54576;52.020;5.536;2023-03-01T16:10:43;7.40;55.70
67777;DHT22;54576;52.020;5.536;2023-03-01T16:13:10;7.40;57.00
67777;DHT22;54576;52.020;5.536;2023-03-01T16:15:36;7.40;62.80
67777;DHT22;54576;52.020;5.536;2023-03-01T16:18:03;7.40;76.30
67777;DHT22;54576;52.020;5.536;2023-03-01T16:20:31;7.40;57.20
67777;DHT22;54576;52.020;5.536;2023-03-01T16:23:05;7.30;55.50
67777;DHT22;54576;52.020;5.536;2023-03-01T16:25:31;7.30;56.30
67777;DHT22;54576;52.020;5.536;2023-03-01T16:27:58;7.20;57.60
67777;DHT22;54576;52.020;5.536;2023-03-01T16:30:26;7.20;57.10
67777;DHT22;54576;52.020;5.536;2023-03-01T16:32:52;7.20;57.90
67777;DHT22;54576;52.020;5.536;2023-03-01T16:35:20;7.20;58.40
67777;DHT22;54576;52.020;5.536;2023-03-01T16:37:46;7.10;57.70
67777;DHT22;54576;52.020;5.536;2023-03-01T16:40:32;7.10;56.60
67777;DHT22;54576;52.020;5.536;2023-03-01T16:42:58;7.10;57.60
67777;DHT22;54576;52.020;5.536;2023-03-01T16:45:29;7.00;58.00
67777;DHT22;54576;52.020;5.536;2023-03-01T16:47:58;6.90;56.80
67777;DHT22;54576;52.020;5.536;2023-03-01T16:50:24;6.90;58.70
67777;DHT22;54576;52.020;5.536;2023-03-01T16:52:49;6.80;58.90
67777;DHT22;54576;52.020;5.536;2023-03-01T16:55:15;6.70;58.10
67777;DHT22;54576;52.020;5.536;2023-03-01T16:57:41;6.70;58.70
67777;DHT22;54576;52.020;5.536;2023-03-01T17:00:08;6.60;58.90
67777;DHT22;54576;52.020;5.536;2023-03-01T17:02:38;6.60;58.90
67777;DHT22;54576;52.020;5.536;2023-03-01T17:05:04;6.50;58.70
67777;DHT22;54576;52.020;5.536;2023-03-01T17:07:32;6.50;59.20
67777;DHT22;54576;52.020;5.536;2023-03-01T17:09:59;6.40;58.40
67777;DHT22;54576;52.020;5.536;2023-03-01T17:12:25;6.40;59.00
67777;DHT22;54576;52.020;5.536;2023-03-01T17:14:50;6.40;58.90
67777;DHT22;54576;52.020;5.536;2023-03-01T17:17:16;6.30;59.30
67777;DHT22;54576;52.020;5.536;2023-03-01T17:19:41;6.20;58.50
67777;DHT22;54576;52.020;5.536;2023-03-01T17:22:09;6.20;59.40
67777;DHT22;54576;52.020;5.536;2023-03-01T17:24:36;6.10;59.50
67777;DHT22;54576;52.020;5.536;2023-03-01T17:27:02;6.10;59.20
67777;DHT22;54576;52.020;5.536;2023-03-01T17:29:27;6.00;59.30
67777;DHT22;54576;52.020;5.536;2023-03-01T17:31:53;6.00;59.60
67777;DHT22;54576;52.020;5.536;2023-03-01T17:34:23;5.90;59.80
67777;DHT22;54576;52.020;5.536;2023-03-01T17:36:48;5.90;59.30
67777;DHT22;54576;52.020;5.536;2023-03-01T17:39:16;5.80;60.00
67777;DHT22;54576;52.020;5.536;2023-03-01T17:41:42;5.70;59.60
67777;DHT22;54576;52.020;5.536;2023-03-01T17:44:08;5.70;59.90
67777;DHT22;54576;52.020;5.536;2023-03-01T17:46:34;5.70;60.30
67777;DHT22;54576;52.020;5.536;2023-03-01T17:49:00;5.60;60.20
67777;DHT22;54576;52.020;5.536;2023-03-01T17:51:25;5.50;60.10
67777;DHT22;54576;52.020;5.536;2023-03-01T17:53:51;5.50;60.40
67777;DHT22;54576;52.020;5.536;2023-03-01T17:56:18;5.40;60.40
67777;DHT22;54576;52.020;5.536;2023-03-01T17:58:43;5.40;60.60
67777;DHT22;54576;52.020;5.536;2023-03-01T18:01:16;5.30;60.60
67777;DHT22;54576;52.020;5.536;2023-03-01T18:03:43;5.20;60.70
67777;DHT22;54576;52.020;5.536;2023-03-01T18:06:17;5.20;60.80
67777;DHT22;54576;52.020;5.536;2023-03-01T18:08:43;5.20;60.80
67777;DHT22;54576;52.020;5.536;2023-03-01T18:11:17;5.10;60.80
67777;DHT22;54576;52.020;5.536;2023-03-01T18:13:45;5.10;60.90
67777;DHT22;54576;52.020;5.536;2023-03-01T18:16:14;5.00;61.00